createdAt,value
2017-03-05T00:00:36.137Z,0
2017-03-05T00:01:16.544Z,0
2017-03-05T00:01:56.990Z,0
2017-03-05T00:02:37.364Z,0
2017-03-05T00:03:17.845Z,0
2017-03-05T00:03:58.218Z,0
2017-03-05T00:04:38.707Z,0
2017-03-05T00:05:19.140Z,0
2017-03-05T00:05:59.570Z,0
2017-03-05T00:06:39.983Z,0
2017-03-05T00:07:20.420Z,0
2017-03-05T00:08:00.788Z,0
2017-03-05T00:08:41.215Z,0
2017-03-05T00:09:21.877Z,0
2017-03-05T00:10:02.259Z,0
2017-03-05T00:10:42.684Z,0
2017-03-05T00:11:23.138Z,0
2017-03-05T00:12:03.544Z,0
2017-03-05T00:12:43.974Z,0
2017-03-05T00:13:24.385Z,0
2017-03-05T00:14:04.751Z,0
2017-03-05T00:14:45.165Z,0
2017-03-05T00:15:26.690Z,0
2017-03-05T00:16:07.570Z,0
2017-03-05T00:16:47.996Z,0
2017-03-05T00:17:28.539Z,0
2017-03-05T00:18:09.944Z,0
2017-03-05T00:18:50.302Z,0
2017-03-05T00:19:30.754Z,0
2017-03-05T00:20:11.082Z,0
2017-03-05T00:20:51.562Z,0
2017-03-05T00:21:31.947Z,0
2017-03-05T00:22:12.330Z,0
2017-03-05T00:22:53.334Z,0
2017-03-05T00:23:34.195Z,0
2017-03-05T00:24:14.607Z,0
2017-03-05T00:24:56.098Z,0
2017-03-05T00:25:36.461Z,0
2017-03-05T00:26:16.919Z,0
2017-03-05T00:26:59.352Z,0
2017-03-05T00:27:39.769Z,0
2017-03-05T00:28:20.202Z,0
2017-03-05T00:29:00.609Z,0
2017-03-05T00:29:41.447Z,0
2017-03-05T00:30:22.537Z,0
2017-03-05T00:31:03.682Z,0
2017-03-05T00:31:44.807Z,0
2017-03-05T00:32:25.241Z,0
2017-03-05T00:33:05.674Z,0
2017-03-05T00:33:46.051Z,0
2017-03-05T00:34:26.490Z,0
2017-03-05T00:35:07.512Z,0
2017-03-05T00:35:47.916Z,0
2017-03-05T00:36:29.734Z,0
2017-03-05T00:37:10.255Z,0
2017-03-05T00:37:50.633Z,0
2017-03-05T00:38:31.166Z,0
2017-03-05T00:39:11.558Z,0
2017-03-05T00:39:52.157Z,0
2017-03-05T00:40:32.583Z,0
2017-03-05T00:41:13.015Z,0
2017-03-05T00:41:53.372Z,0
2017-03-05T00:42:34.418Z,0
2017-03-05T00:43:14.865Z,0
2017-03-05T00:43:55.249Z,0
2017-03-05T00:44:36.078Z,0
2017-03-05T00:45:16.478Z,0
2017-03-05T00:45:56.919Z,0
2017-03-05T00:46:37.314Z,0
2017-03-05T00:47:17.694Z,0
2017-03-05T00:47:58.129Z,0
2017-03-05T00:48:38.546Z,0
2017-03-05T00:49:19.103Z,0
2017-03-05T00:49:59.503Z,0
2017-03-05T00:50:39.887Z,0
2017-03-05T00:51:20.267Z,0
2017-03-05T00:52:00.699Z,0
2017-03-05T00:52:41.128Z,0
2017-03-05T00:53:21.511Z,0
2017-03-05T00:54:01.930Z,0
2017-03-05T00:54:42.297Z,0
2017-03-05T00:55:23.105Z,0
2017-03-05T00:56:03.521Z,0
2017-03-05T00:56:44.655Z,0
2017-03-05T00:57:25.091Z,0
2017-03-05T00:58:05.466Z,0
2017-03-05T00:58:45.898Z,0
2017-03-05T00:59:26.278Z,0
2017-03-05T01:00:06.726Z,0
2017-03-05T01:00:47.332Z,0
2017-03-05T01:01:27.714Z,0
2017-03-05T01:02:08.137Z,0
2017-03-05T01:02:48.500Z,0
2017-03-05T01:03:28.888Z,0
2017-03-05T01:04:09.350Z,0
2017-03-05T01:04:50.666Z,0
2017-03-05T01:05:30.878Z,0
2017-03-05T01:06:11.312Z,0
2017-03-05T01:06:51.739Z,0
2017-03-05T01:07:32.108Z,0
2017-03-05T01:08:12.564Z,0
2017-03-05T01:08:52.966Z,0
2017-03-05T01:09:33.455Z,0
2017-03-05T01:10:13.855Z,0
2017-03-05T01:10:54.245Z,0
2017-03-05T01:11:35.344Z,0
2017-03-05T01:12:16.951Z,0
2017-03-05T01:12:57.382Z,0
2017-03-05T01:13:38.237Z,0
2017-03-05T01:14:19.861Z,0
2017-03-05T01:15:00.247Z,0
2017-03-05T01:15:41.286Z,0
2017-03-05T01:16:22.473Z,0
2017-03-05T01:17:02.848Z,0
2017-03-05T01:17:43.553Z,0
2017-03-05T01:18:24.600Z,0
2017-03-05T01:19:04.983Z,0
2017-03-05T01:19:45.452Z,0
2017-03-05T01:20:25.861Z,0
2017-03-05T01:21:06.257Z,0
2017-03-05T01:21:46.656Z,0
2017-03-05T01:22:27.110Z,0
2017-03-05T01:23:08.008Z,0
2017-03-05T01:23:48.441Z,0
2017-03-05T01:24:28.847Z,0
2017-03-05T01:25:09.247Z,0
2017-03-05T01:25:51.794Z,0
2017-03-05T01:26:33.037Z,0
2017-03-05T01:27:13.437Z,0
2017-03-05T01:27:53.864Z,0
2017-03-05T01:28:34.866Z,0
2017-03-05T01:29:17.450Z,0
2017-03-05T01:29:57.886Z,0
2017-03-05T01:30:38.251Z,0
2017-03-05T01:31:18.655Z,0
2017-03-05T01:31:59.522Z,0
2017-03-05T01:32:39.963Z,0
2017-03-05T01:33:21.370Z,0
2017-03-05T01:34:01.876Z,0
2017-03-05T01:34:42.272Z,0
2017-03-05T01:35:22.712Z,0
2017-03-05T01:36:10.013Z,0
2017-03-05T01:36:50.448Z,0
2017-03-05T01:37:31.808Z,0
2017-03-05T01:38:13.193Z,0
2017-03-05T01:38:53.575Z,0
2017-03-05T01:39:34.627Z,0
2017-03-05T01:40:15.545Z,0
2017-03-05T01:40:55.957Z,0
2017-03-05T01:41:36.379Z,0
2017-03-05T01:42:16.770Z,0
2017-03-05T01:42:57.661Z,0
2017-03-05T01:43:38.228Z,0
2017-03-05T01:44:18.817Z,0
2017-03-05T01:45:02.280Z,0
2017-03-05T01:45:46.226Z,0
2017-03-05T01:46:27.356Z,0
2017-03-05T01:47:08.633Z,0
2017-03-05T01:47:49.328Z,0
2017-03-05T01:48:29.759Z,0
2017-03-05T01:49:11.101Z,0
2017-03-05T01:49:51.343Z,0
2017-03-05T01:50:31.795Z,0
2017-03-05T01:51:12.541Z,0
2017-03-05T01:51:53.147Z,0
2017-03-05T01:52:33.720Z,0
2017-03-05T01:53:14.122Z,0
2017-03-05T01:53:55.217Z,0
2017-03-05T01:54:35.862Z,0
2017-03-05T01:55:16.310Z,0
2017-03-05T01:55:56.731Z,0
2017-03-05T01:56:37.401Z,0
2017-03-05T01:57:19.571Z,0
2017-03-05T01:58:00.100Z,0
2017-03-05T01:58:40.548Z,0
2017-03-05T01:59:20.987Z,0
2017-03-05T02:00:01.434Z,0
2017-03-05T02:00:41.823Z,0
2017-03-05T02:01:22.222Z,0
2017-03-05T02:02:02.637Z,0
2017-03-05T02:02:43.654Z,0
2017-03-05T02:03:24.433Z,0
2017-03-05T02:04:04.876Z,0
2017-03-05T02:04:45.241Z,0
2017-03-05T02:05:25.644Z,0
2017-03-05T02:06:06.052Z,0
2017-03-05T02:06:46.463Z,0
2017-03-05T02:07:26.842Z,0
2017-03-05T02:08:07.306Z,0
2017-03-05T02:08:47.726Z,0
2017-03-05T02:09:28.118Z,0
2017-03-05T02:10:08.564Z,0
2017-03-05T02:10:49.022Z,0
2017-03-05T02:11:29.374Z,0
2017-03-05T02:12:09.814Z,0
2017-03-05T02:12:50.259Z,0
2017-03-05T02:13:30.718Z,0
2017-03-05T02:14:11.112Z,0
2017-03-05T02:14:51.483Z,0
2017-03-05T02:15:31.890Z,0
2017-03-05T02:16:12.318Z,0
2017-03-05T02:16:52.713Z,0
2017-03-05T02:17:33.110Z,0
2017-03-05T02:18:13.518Z,0
2017-03-05T02:18:53.935Z,0
2017-03-05T02:19:34.353Z,0
2017-03-05T02:20:14.767Z,0
2017-03-05T02:20:55.124Z,0
2017-03-05T02:21:35.530Z,0
2017-03-05T02:22:15.974Z,0
2017-03-05T02:22:56.355Z,0
2017-03-05T02:23:36.812Z,0
2017-03-05T02:24:17.204Z,0
2017-03-05T02:24:57.623Z,0
2017-03-05T02:25:38.024Z,0
2017-03-05T02:26:18.444Z,0
2017-03-05T02:26:58.870Z,0
2017-03-05T02:27:39.246Z,0
2017-03-05T02:28:19.721Z,0
2017-03-05T02:29:00.146Z,0
2017-03-05T02:29:40.554Z,0
2017-03-05T02:30:20.876Z,0
2017-03-05T02:31:01.307Z,0
2017-03-05T02:31:41.746Z,0
2017-03-05T02:32:22.101Z,0
2017-03-05T02:33:02.583Z,0
2017-03-05T02:33:42.977Z,0
2017-03-05T02:34:23.387Z,0
2017-03-05T02:35:03.799Z,0
2017-03-05T02:35:44.186Z,0
2017-03-05T02:36:24.640Z,0
2017-03-05T02:37:05.030Z,0
2017-03-05T02:37:45.446Z,0
2017-03-05T02:38:25.872Z,0
2017-03-05T02:39:06.298Z,0
2017-03-05T02:39:46.670Z,0
2017-03-05T02:40:27.121Z,0
2017-03-05T02:41:07.531Z,0
2017-03-05T02:41:47.925Z,0
2017-03-05T02:42:28.349Z,0
2017-03-05T02:43:08.700Z,0
2017-03-05T02:43:49.152Z,0
2017-03-05T02:44:29.570Z,0
2017-03-05T02:45:09.930Z,0
2017-03-05T02:45:50.381Z,0
2017-03-05T02:46:30.908Z,0
2017-03-05T02:47:11.203Z,0
2017-03-05T02:47:51.609Z,0
2017-03-05T02:48:31.970Z,0
2017-03-05T02:49:12.521Z,0
2017-03-05T02:49:52.949Z,0
2017-03-05T02:50:33.295Z,0
2017-03-05T02:51:13.744Z,0
2017-03-05T02:51:54.143Z,0
2017-03-05T02:52:34.540Z,0
2017-03-05T02:53:14.945Z,0
2017-03-05T02:53:55.392Z,0
2017-03-05T02:54:35.787Z,0
2017-03-05T02:55:16.130Z,0
2017-03-05T02:55:56.589Z,0
2017-03-05T02:56:36.988Z,0
2017-03-05T02:57:17.329Z,0
2017-03-05T02:57:57.755Z,0
2017-03-05T02:58:38.198Z,0
2017-03-05T02:59:18.571Z,0
2017-03-05T02:59:58.993Z,0
2017-03-05T03:00:39.562Z,0
2017-03-05T03:01:19.944Z,0
2017-03-05T03:02:00.324Z,0
2017-03-05T03:02:40.749Z,0
2017-03-05T03:03:21.165Z,0
2017-03-05T03:04:01.507Z,0
2017-03-05T03:04:41.969Z,0
2017-03-05T03:05:22.367Z,0
2017-03-05T03:06:02.738Z,0
2017-03-05T03:06:43.124Z,0
2017-03-05T03:07:23.513Z,0
2017-03-05T03:08:03.950Z,0
2017-03-05T03:08:44.350Z,0
2017-03-05T03:09:24.758Z,0
2017-03-05T03:10:05.193Z,0
2017-03-05T03:10:45.596Z,0
2017-03-05T03:11:25.964Z,0
2017-03-05T03:12:06.424Z,0
2017-03-05T03:12:46.853Z,0
2017-03-05T03:13:27.200Z,0
2017-03-05T03:14:07.600Z,0
2017-03-05T03:14:47.976Z,0
2017-03-05T03:15:28.432Z,0
2017-03-05T03:16:08.796Z,0
2017-03-05T03:16:49.233Z,0
2017-03-05T03:17:29.634Z,0
2017-03-05T03:18:10.047Z,0
2017-03-05T03:18:50.440Z,0
2017-03-05T03:19:30.827Z,0
2017-03-05T03:20:11.220Z,0
2017-03-05T03:20:51.624Z,0
2017-03-05T03:21:32.027Z,0
2017-03-05T03:22:12.456Z,0
2017-03-05T03:22:52.937Z,0
2017-03-05T03:23:33.316Z,0
2017-03-05T03:24:13.741Z,0
2017-03-05T03:24:54.147Z,0
2017-03-05T03:25:34.573Z,0
2017-03-05T03:26:15.018Z,0
2017-03-05T03:26:55.496Z,0
2017-03-05T03:27:35.781Z,0
2017-03-05T03:28:16.223Z,0
2017-03-05T03:28:56.608Z,0
2017-03-05T03:29:37.044Z,0
2017-03-05T03:30:17.404Z,0
2017-03-05T03:30:57.851Z,0
2017-03-05T03:31:38.237Z,0
2017-03-05T03:32:18.721Z,0
2017-03-05T03:32:59.117Z,0
2017-03-05T03:33:39.519Z,0
2017-03-05T03:34:19.964Z,0
2017-03-05T03:35:00.357Z,0
2017-03-05T03:35:40.721Z,0
2017-03-05T03:36:21.101Z,0
2017-03-05T03:37:01.547Z,0
2017-03-05T03:37:42.020Z,0
2017-03-05T03:38:22.411Z,0
2017-03-05T03:39:02.825Z,0
2017-03-05T03:39:43.303Z,0
2017-03-05T03:40:23.747Z,0
2017-03-05T03:41:04.136Z,0
2017-03-05T03:41:44.560Z,0
2017-03-05T03:42:24.946Z,0
2017-03-05T03:43:05.396Z,0
2017-03-05T03:43:45.849Z,0
2017-03-05T03:44:26.238Z,0
2017-03-05T03:45:06.642Z,0
2017-03-05T03:45:47.081Z,0
2017-03-05T03:46:27.514Z,0
2017-03-05T03:47:07.932Z,0
2017-03-05T03:47:48.343Z,0
2017-03-05T03:48:28.768Z,0
2017-03-05T03:49:09.216Z,0
2017-03-05T03:49:49.645Z,0
2017-03-05T03:50:30.063Z,0
2017-03-05T03:51:10.511Z,0
2017-03-05T03:51:50.926Z,0
2017-03-05T03:52:31.338Z,0
2017-03-05T03:53:11.729Z,0
2017-03-05T03:53:52.128Z,0
2017-03-05T03:54:32.539Z,0
2017-03-05T03:55:12.924Z,0
2017-03-05T03:55:53.402Z,0
2017-03-05T03:56:33.817Z,0
2017-03-05T03:57:14.236Z,0
2017-03-05T03:57:54.612Z,0
2017-03-05T03:58:35.058Z,0
2017-03-05T03:59:15.472Z,0
2017-03-05T03:59:55.798Z,0
2017-03-05T04:00:36.290Z,0
2017-03-05T04:01:16.639Z,0
2017-03-05T04:01:57.024Z,0
2017-03-05T04:02:37.477Z,0
2017-03-05T04:03:17.838Z,0
2017-03-05T04:03:58.275Z,0
2017-03-05T04:04:38.697Z,0
2017-03-05T04:05:19.109Z,0
2017-03-05T04:05:59.522Z,0
2017-03-05T04:06:39.897Z,0
2017-03-05T04:07:20.304Z,0
2017-03-05T04:08:00.716Z,0
2017-03-05T04:08:41.093Z,0
2017-03-05T04:09:21.561Z,0
2017-03-05T04:10:01.916Z,0
2017-03-05T04:10:42.314Z,0
2017-03-05T04:11:22.696Z,0
2017-03-05T04:12:03.105Z,0
2017-03-05T04:12:43.464Z,0
2017-03-05T04:13:23.842Z,0
2017-03-05T04:14:04.282Z,0
2017-03-05T04:14:44.696Z,0
2017-03-05T04:15:25.066Z,0
2017-03-05T04:16:05.492Z,0
2017-03-05T04:16:45.858Z,0
2017-03-05T04:17:26.315Z,0
2017-03-05T04:18:06.776Z,0
2017-03-05T04:18:47.162Z,0
2017-03-05T04:19:27.532Z,0
2017-03-05T04:20:07.958Z,0
2017-03-05T04:20:48.379Z,0
2017-03-05T04:21:28.732Z,0
2017-03-05T04:22:09.180Z,0
2017-03-05T04:22:49.565Z,0
2017-03-05T04:23:29.942Z,0
2017-03-05T04:24:10.376Z,0
2017-03-05T04:24:50.748Z,0
2017-03-05T04:25:31.211Z,0
2017-03-05T04:26:11.646Z,0
2017-03-05T04:26:52.032Z,0
2017-03-05T04:27:32.403Z,0
2017-03-05T04:28:12.825Z,0
2017-03-05T04:28:53.237Z,0
2017-03-05T04:29:33.598Z,0
2017-03-05T04:30:13.999Z,0
2017-03-05T04:30:54.441Z,0
2017-03-05T04:31:34.824Z,0
2017-03-05T04:32:15.226Z,0
2017-03-05T04:32:55.659Z,0
2017-03-05T04:33:36.047Z,0
2017-03-05T04:34:16.548Z,0
2017-03-05T04:34:56.953Z,0
2017-03-05T04:35:37.292Z,0
2017-03-05T04:36:17.755Z,0
2017-03-05T04:36:58.130Z,0
2017-03-05T04:37:38.595Z,0
2017-03-05T04:38:19.038Z,0
2017-03-05T04:38:59.516Z,0
2017-03-05T04:39:39.856Z,0
2017-03-05T04:40:20.311Z,0
2017-03-05T04:41:00.715Z,0
2017-03-05T04:41:41.141Z,0
2017-03-05T04:42:21.561Z,0
2017-03-05T04:43:01.935Z,0
2017-03-05T04:43:42.322Z,0
2017-03-05T04:44:22.699Z,0
2017-03-05T04:45:03.104Z,0
2017-03-05T04:45:43.480Z,0
2017-03-05T04:46:23.945Z,0
2017-03-05T04:47:04.295Z,0
2017-03-05T04:47:44.718Z,0
2017-03-05T04:48:25.164Z,0
2017-03-05T04:49:05.554Z,0
2017-03-05T04:49:45.955Z,0
2017-03-05T04:50:26.409Z,0
2017-03-05T04:51:06.857Z,0
2017-03-05T04:51:47.240Z,0
2017-03-05T04:52:27.578Z,0
2017-03-05T04:53:07.981Z,0
2017-03-05T04:53:48.485Z,0
2017-03-05T04:54:28.917Z,0
2017-03-05T04:55:09.381Z,0
2017-03-05T04:55:49.769Z,0
2017-03-05T04:56:30.182Z,0
2017-03-05T04:57:10.689Z,0
2017-03-05T04:57:51.144Z,0
2017-03-05T04:58:31.513Z,0
2017-03-05T04:59:11.949Z,0
2017-03-05T04:59:52.311Z,0
2017-03-05T05:00:32.760Z,0
2017-03-05T05:01:13.174Z,0
2017-03-05T05:01:53.646Z,0
2017-03-05T05:02:34.006Z,0
2017-03-05T05:03:14.554Z,0
2017-03-05T05:03:55.028Z,0
2017-03-05T05:04:35.421Z,0
2017-03-05T05:05:15.835Z,0
2017-03-05T05:05:56.250Z,0
2017-03-05T05:06:36.729Z,0
2017-03-05T05:07:17.164Z,0
2017-03-05T05:07:57.637Z,0
2017-03-05T05:08:38.009Z,0
2017-03-05T05:09:18.430Z,0
2017-03-05T05:09:58.833Z,0
2017-03-05T05:10:39.233Z,0
2017-03-05T05:11:19.635Z,0
2017-03-05T05:12:00.054Z,0
2017-03-05T05:12:40.452Z,0
2017-03-05T05:13:20.869Z,0
2017-03-05T05:14:01.289Z,0
2017-03-05T05:14:41.706Z,0
2017-03-05T05:15:22.123Z,0
2017-03-05T05:16:02.519Z,0
2017-03-05T05:16:42.890Z,0
2017-03-05T05:17:23.318Z,0
2017-03-05T05:18:03.700Z,0
2017-03-05T05:18:44.229Z,0
2017-03-05T05:19:24.567Z,0
2017-03-05T05:20:04.946Z,0
2017-03-05T05:20:45.402Z,0
2017-03-05T05:21:25.787Z,0
2017-03-05T05:22:06.170Z,0
2017-03-05T05:22:46.606Z,0
2017-03-05T05:23:27.015Z,0
2017-03-05T05:24:07.421Z,0
2017-03-05T05:24:47.859Z,0
2017-03-05T05:25:28.280Z,0
2017-03-05T05:26:08.674Z,0
2017-03-05T05:26:49.051Z,0
2017-03-05T05:27:29.478Z,0
2017-03-05T05:28:09.896Z,0
2017-03-05T05:28:50.295Z,0
2017-03-05T05:29:30.685Z,0
2017-03-05T05:30:11.093Z,0
2017-03-05T05:30:51.544Z,0
2017-03-05T05:31:31.986Z,0
2017-03-05T05:32:12.375Z,0
2017-03-05T05:32:52.748Z,0
2017-03-05T05:33:33.152Z,0
2017-03-05T05:34:13.535Z,0
2017-03-05T05:34:53.976Z,4
2017-03-05T05:35:34.413Z,4
2017-03-05T05:36:14.759Z,4
2017-03-05T05:36:55.197Z,4
2017-03-05T05:37:35.564Z,4
2017-03-05T05:38:15.993Z,0
2017-03-05T05:38:56.391Z,4
2017-03-05T05:39:36.782Z,4
2017-03-05T05:40:17.259Z,4
2017-03-05T05:40:57.671Z,4
2017-03-05T05:41:38.087Z,8
2017-03-05T05:42:18.500Z,12
2017-03-05T05:42:58.904Z,12
2017-03-05T05:43:39.302Z,16
2017-03-05T05:44:19.687Z,16
2017-03-05T05:45:00.099Z,16
2017-03-05T05:45:40.508Z,20
2017-03-05T05:46:20.944Z,20
2017-03-05T05:47:01.348Z,24
2017-03-05T05:47:41.803Z,24
2017-03-05T05:48:22.193Z,32
2017-03-05T05:49:02.613Z,36
2017-03-05T05:49:43.057Z,44
2017-03-05T05:50:23.438Z,48
2017-03-05T05:51:03.771Z,52
2017-03-05T05:51:44.220Z,52
2017-03-05T05:52:24.882Z,60
2017-03-05T05:53:05.269Z,60
2017-03-05T05:53:45.716Z,64
2017-03-05T05:54:26.118Z,64
2017-03-05T05:55:06.581Z,76
2017-03-05T05:55:46.961Z,80
2017-03-05T05:56:27.440Z,88
2017-03-05T05:57:07.829Z,96
2017-03-05T05:57:48.262Z,96
2017-03-05T05:58:28.630Z,96
2017-03-05T05:59:09.167Z,104
2017-03-05T05:59:49.607Z,108
2017-03-05T06:00:30.097Z,112
2017-03-05T06:01:10.405Z,120
2017-03-05T06:01:50.855Z,120
2017-03-05T06:02:31.249Z,128
2017-03-05T06:03:11.654Z,136
2017-03-05T06:03:52.062Z,140
2017-03-05T06:04:32.457Z,152
2017-03-05T06:05:12.858Z,168
2017-03-05T06:05:53.273Z,188
2017-03-05T06:06:33.712Z,204
2017-03-05T06:07:14.060Z,224
2017-03-05T06:07:54.503Z,228
2017-03-05T06:08:34.970Z,236
2017-03-05T06:09:15.357Z,240
2017-03-05T06:09:55.716Z,244
2017-03-05T06:10:36.180Z,244
2017-03-05T06:11:16.591Z,240
2017-03-05T06:11:57.010Z,232
2017-03-05T06:12:37.399Z,224
2017-03-05T06:13:17.816Z,224
2017-03-05T06:13:58.211Z,240
2017-03-05T06:14:38.608Z,256
2017-03-05T06:15:19.096Z,268
2017-03-05T06:15:59.455Z,288
2017-03-05T06:16:39.851Z,304
2017-03-05T06:17:20.235Z,320
2017-03-05T06:18:00.642Z,340
2017-03-05T06:18:41.071Z,360
2017-03-05T06:19:21.426Z,392
2017-03-05T06:20:01.851Z,416
2017-03-05T06:20:42.295Z,420
2017-03-05T06:21:22.673Z,440
2017-03-05T06:22:03.086Z,476
2017-03-05T06:22:43.496Z,516
2017-03-05T06:23:23.927Z,572
2017-03-05T06:24:04.308Z,620
2017-03-05T06:24:44.668Z,676
2017-03-05T06:25:25.173Z,728
2017-03-05T06:26:05.566Z,796
2017-03-05T06:26:45.959Z,844
2017-03-05T06:27:26.649Z,888
2017-03-05T06:28:07.035Z,920
2017-03-05T06:28:47.448Z,944
2017-03-05T06:29:27.870Z,996
2017-03-05T06:30:08.288Z,1036
2017-03-05T06:30:48.708Z,1048
2017-03-05T06:31:29.112Z,1056
2017-03-05T06:32:09.494Z,1116
2017-03-05T06:32:49.935Z,1128
2017-03-05T06:33:30.329Z,1124
2017-03-05T06:34:10.705Z,1124
2017-03-05T06:34:51.140Z,1100
2017-03-05T06:35:31.522Z,1048
2017-03-05T06:36:11.936Z,1048
2017-03-05T06:36:52.316Z,1060
2017-03-05T06:37:32.717Z,1100
2017-03-05T06:38:13.124Z,1152
2017-03-05T06:38:53.583Z,1304
2017-03-05T06:39:33.967Z,1468
2017-03-05T06:40:14.352Z,1496
2017-03-05T06:40:54.783Z,1380
2017-03-05T06:41:35.137Z,1332
2017-03-05T06:42:15.543Z,1332
2017-03-05T06:42:55.953Z,1396
2017-03-05T06:43:36.368Z,1496
2017-03-05T06:44:16.924Z,1648
2017-03-05T06:44:57.253Z,1756
2017-03-05T06:45:37.587Z,1760
2017-03-05T06:46:18.031Z,1724
2017-03-05T06:46:58.388Z,1704
2017-03-05T06:47:38.794Z,1580
2017-03-05T06:48:19.186Z,1484
2017-03-05T06:48:59.614Z,1504
2017-03-05T06:49:40.025Z,1644
2017-03-05T06:50:20.405Z,1832
2017-03-05T06:51:00.810Z,1968
2017-03-05T06:51:41.257Z,1988
2017-03-05T06:52:21.616Z,1932
2017-03-05T06:53:02.048Z,1964
2017-03-05T06:53:42.449Z,2184
2017-03-05T06:54:22.868Z,2484
2017-03-05T06:55:03.265Z,2612
2017-03-05T06:55:43.676Z,2576
2017-03-05T06:56:24.098Z,2476
2017-03-05T06:57:04.486Z,2168
2017-03-05T06:57:44.868Z,1924
2017-03-05T06:58:25.263Z,1852
2017-03-05T06:59:05.742Z,2136
2017-03-05T06:59:46.094Z,2652
2017-03-05T07:00:26.499Z,2976
2017-03-05T07:01:06.917Z,2968
2017-03-05T07:01:47.313Z,2680
2017-03-05T07:02:27.779Z,2432
2017-03-05T07:03:08.178Z,2136
2017-03-05T07:03:48.593Z,1900
2017-03-05T07:04:28.964Z,1924
2017-03-05T07:05:09.371Z,2024
2017-03-05T07:05:49.769Z,2228
2017-03-05T07:06:30.218Z,2236
2017-03-05T07:07:10.635Z,2248
2017-03-05T07:07:51.021Z,2096
2017-03-05T07:08:32.194Z,2028
2017-03-05T07:09:11.884Z,2120
2017-03-05T07:09:52.261Z,1956
2017-03-05T07:10:32.683Z,1968
2017-03-05T07:11:13.089Z,2280
2017-03-05T07:11:53.504Z,2508
2017-03-05T07:12:33.897Z,2552
2017-03-05T07:13:14.310Z,2872
2017-03-05T07:13:54.700Z,3300
2017-03-05T07:14:35.144Z,3340
2017-03-05T07:15:15.552Z,3316
2017-03-05T07:15:55.981Z,3276
2017-03-05T07:16:36.415Z,3416
2017-03-05T07:17:16.799Z,3704
2017-03-05T07:17:57.196Z,3884
2017-03-05T07:18:37.639Z,3712
2017-03-05T07:19:18.029Z,3868
2017-03-05T07:19:58.432Z,3932
2017-03-05T07:20:38.853Z,3808
2017-03-05T07:21:19.262Z,3716
2017-03-05T07:21:59.656Z,3424
2017-03-05T07:22:40.027Z,3172
2017-03-05T07:23:20.453Z,3100
2017-03-05T07:24:00.868Z,2892
2017-03-05T07:24:41.223Z,2776
2017-03-05T07:25:21.726Z,2856
2017-03-05T07:26:02.049Z,3080
2017-03-05T07:26:42.473Z,3348
2017-03-05T07:27:22.900Z,3716
2017-03-05T07:28:03.331Z,3796
2017-03-05T07:28:43.671Z,3532
2017-03-05T07:29:24.088Z,3280
2017-03-05T07:30:04.483Z,3008
2017-03-05T07:30:44.937Z,2644
2017-03-05T07:31:25.302Z,2608
2017-03-05T07:32:05.660Z,3020
2017-03-05T07:32:46.099Z,3228
2017-03-05T07:33:26.486Z,3176
2017-03-05T07:34:06.929Z,2928
2017-03-05T07:34:47.297Z,2884
2017-03-05T07:35:27.759Z,2940
2017-03-05T07:36:08.162Z,2820
2017-03-05T07:36:48.489Z,2532
2017-03-05T07:37:29.043Z,2264
2017-03-05T07:38:09.477Z,2300
2017-03-05T07:38:49.898Z,2508
2017-03-05T07:39:30.349Z,2540
2017-03-05T07:40:10.731Z,2508
2017-03-05T07:40:51.204Z,2820
2017-03-05T07:41:31.602Z,2940
2017-03-05T07:42:12.000Z,2836
2017-03-05T07:42:52.440Z,2740
2017-03-05T07:43:32.885Z,2672
2017-03-05T07:44:13.271Z,2804
2017-03-05T07:44:53.714Z,3120
2017-03-05T07:45:34.110Z,3660
2017-03-05T07:46:14.484Z,3904
2017-03-05T07:46:54.912Z,3668
2017-03-05T07:47:35.317Z,3384
2017-03-05T07:48:15.715Z,3300
2017-03-05T07:48:56.141Z,3376
2017-03-05T07:49:36.485Z,3412
2017-03-05T07:50:16.923Z,3556
2017-03-05T07:50:57.377Z,3736
2017-03-05T07:51:37.796Z,3812
2017-03-05T07:52:18.145Z,3876
2017-03-05T07:52:58.535Z,3604
2017-03-05T07:53:38.967Z,3184
2017-03-05T07:54:19.372Z,3052
2017-03-05T07:54:59.874Z,3368
2017-03-05T07:55:40.316Z,4028
2017-03-05T07:56:20.722Z,4396
2017-03-05T07:57:01.140Z,4292
2017-03-05T07:57:41.565Z,3824
2017-03-05T07:58:21.948Z,3748
2017-03-05T07:59:02.368Z,4268
2017-03-05T07:59:42.791Z,5096
2017-03-05T08:00:23.204Z,5756
2017-03-05T08:01:03.671Z,6224
2017-03-05T08:01:44.034Z,6404
2017-03-05T08:02:24.482Z,6180
2017-03-05T08:03:04.868Z,5648
2017-03-05T08:03:45.297Z,5312
2017-03-05T08:04:25.677Z,5692
2017-03-05T08:05:06.077Z,5988
2017-03-05T08:05:46.545Z,6592
2017-03-05T08:06:27.798Z,7164
2017-03-05T08:07:08.224Z,7500
2017-03-05T08:07:48.675Z,7736
2017-03-05T08:08:30.055Z,7256
2017-03-05T08:09:12.130Z,7224
2017-03-05T08:09:52.558Z,7628
2017-03-05T08:10:33.128Z,8560
2017-03-05T08:11:13.494Z,9224
2017-03-05T08:11:53.958Z,9080
2017-03-05T08:12:34.365Z,8440
2017-03-05T08:13:14.745Z,10632
2017-03-05T08:13:55.175Z,6460
2017-03-05T08:14:35.633Z,4932
2017-03-05T08:15:16.089Z,7752
2017-03-05T08:15:56.537Z,8324
2017-03-05T08:16:37.048Z,8124
2017-03-05T08:17:17.522Z,7956
2017-03-05T08:17:57.915Z,7596
2017-03-05T08:18:38.325Z,7840
2017-03-05T08:19:18.755Z,7416
2017-03-05T08:19:59.155Z,8404
2017-03-05T08:20:39.602Z,5152
2017-03-05T08:21:19.959Z,5004
2017-03-05T08:22:00.769Z,5384
2017-03-05T08:22:40.941Z,6480
2017-03-05T08:23:21.373Z,6984
2017-03-05T08:24:01.726Z,3480
2017-03-05T08:24:42.233Z,8080
2017-03-05T08:25:22.643Z,8072
2017-03-05T08:26:03.029Z,8360
2017-03-05T08:26:43.411Z,8516
2017-03-05T08:27:23.939Z,8388
2017-03-05T08:28:04.404Z,8308
2017-03-05T08:28:44.779Z,8636
2017-03-05T08:29:25.161Z,8828
2017-03-05T08:30:05.639Z,9296
2017-03-05T08:30:45.959Z,9316
2017-03-05T08:31:27.369Z,4260
2017-03-05T08:32:07.768Z,8652
2017-03-05T08:32:48.252Z,10968
2017-03-05T08:33:28.681Z,11616
2017-03-05T08:34:09.025Z,9204
2017-03-05T08:34:49.471Z,6140
2017-03-05T08:35:29.905Z,9580
2017-03-05T08:36:10.301Z,11644
2017-03-05T08:36:50.713Z,11900
2017-03-05T08:37:31.130Z,7240
2017-03-05T08:38:11.563Z,7452
2017-03-05T08:38:51.972Z,8564
2017-03-05T08:39:32.590Z,10328
2017-03-05T08:40:12.804Z,9220
2017-03-05T08:40:53.214Z,12968
2017-03-05T08:41:33.627Z,11400
2017-03-05T08:42:14.091Z,9764
2017-03-05T08:42:54.436Z,16372
2017-03-05T08:43:34.897Z,18080
2017-03-05T08:44:15.301Z,11480
2017-03-05T08:44:56.689Z,13760
2017-03-05T08:45:37.137Z,11764
2017-03-05T08:46:17.718Z,10016
2017-03-05T08:46:58.117Z,8100
2017-03-05T08:47:38.531Z,9896
2017-03-05T08:48:18.952Z,11308
2017-03-05T08:48:59.381Z,13888
2017-03-05T08:49:39.822Z,11852
2017-03-05T08:50:20.228Z,15960
2017-03-05T08:51:00.611Z,8864
2017-03-05T08:51:41.095Z,13004
2017-03-05T08:52:21.503Z,12780
2017-03-05T08:53:01.929Z,13052
2017-03-05T08:53:42.355Z,10340
2017-03-05T08:54:22.939Z,9488
2017-03-05T08:55:03.477Z,12496
2017-03-05T08:55:44.288Z,13704
2017-03-05T08:56:24.806Z,16016
2017-03-05T08:57:05.185Z,15444
2017-03-05T08:57:45.603Z,12608
2017-03-05T08:58:26.001Z,12984
2017-03-05T08:59:06.411Z,10772
2017-03-05T08:59:46.876Z,11244
2017-03-05T09:00:27.453Z,11832
2017-03-05T09:01:08.143Z,16256
2017-03-05T09:01:48.503Z,15048
2017-03-05T09:02:28.967Z,15220
2017-03-05T09:03:09.356Z,16376
2017-03-05T09:03:49.788Z,16832
2017-03-05T09:04:30.984Z,15144
2017-03-05T09:05:11.537Z,11912
2017-03-05T09:05:52.104Z,11556
2017-03-05T09:06:32.621Z,13312
2017-03-05T09:07:13.423Z,13660
2017-03-05T09:07:54.431Z,12880
2017-03-05T09:08:34.804Z,12192
2017-03-05T09:09:15.557Z,12000
2017-03-05T09:09:55.992Z,11296
2017-03-05T09:10:36.430Z,9020
2017-03-05T09:11:17.170Z,9712
2017-03-05T09:11:57.843Z,9144
2017-03-05T09:12:39.820Z,17376
2017-03-05T09:13:20.225Z,8844
2017-03-05T09:14:00.653Z,8868
2017-03-05T09:14:41.144Z,12576
2017-03-05T09:15:23.213Z,16392
2017-03-05T09:16:03.677Z,14976
2017-03-05T09:16:44.950Z,15956
2017-03-05T09:17:24.688Z,12828
2017-03-05T09:18:05.127Z,10684
2017-03-05T09:18:46.231Z,11648
2017-03-05T09:19:26.244Z,12976
2017-03-05T09:20:06.644Z,13668
2017-03-05T09:20:47.063Z,14040
2017-03-05T09:21:32.008Z,15480
2017-03-05T09:22:13.391Z,16644
2017-03-05T09:22:53.792Z,20320
2017-03-05T09:23:34.239Z,15580
2017-03-05T09:24:14.713Z,16296
2017-03-05T09:24:55.992Z,18624
2017-03-05T09:25:37.160Z,19360
2017-03-05T09:26:17.592Z,19872
2017-03-05T09:26:58.006Z,19936
2017-03-05T09:27:39.094Z,21376
2017-03-05T09:28:20.040Z,18400
2017-03-05T09:29:02.329Z,13488
2017-03-05T09:29:41.066Z,10352
2017-03-05T09:30:21.451Z,15504
2017-03-05T09:31:01.876Z,15256
2017-03-05T09:31:43.568Z,16316
2017-03-05T09:32:24.422Z,17760
2017-03-05T09:33:04.840Z,17728
2017-03-05T09:33:45.341Z,16556